Time;durP1;ratioP1;P1;durP2;ratioP2;P2;SDS_P1;SDS_P2;PMS_P1;PMS_P2;Temp;Humidity;BMP_temperature;BMP_pressure;BME280_temperature;BME280_humidity;BME280_pressure;Samples;Min_cycle;Max_cycle;Signal;HPM_P1;HPM_P2
2022/01/30 00:00:27;;;;;;;2.37;2.07;;;5.40;99.90;;;;;;4954199;29;20785;-66
2022/01/30 00:02:52;;;;;;;2.00;1.73;;;5.40;99.90;;;;;;4953906;29;20645;-67
2022/01/30 00:05:18;;;;;;;1.47;1.37;;;5.40;99.90;;;;;;4953852;29;20185;-67
2022/01/30 00:07:44;;;;;;;1.57;1.47;;;5.40;99.90;;;;;;4953958;29;20247;-66
2022/01/30 00:10:12;;;;;;;1.60;1.50;;;5.40;99.90;;;;;;4953923;29;20211;-66
2022/01/30 00:12:54;;;;;;;1.40;1.30;;;5.40;99.90;;;;;;4953903;29;20456;-66
2022/01/30 00:15:33;;;;;;;1.60;1.50;;;5.50;99.90;;;;;;4953641;29;20423;-66
2022/01/30 00:18:10;;;;;;;1.20;1.10;;;5.50;99.90;;;;;;4953924;29;20434;-66
2022/01/30 00:20:38;;;;;;;1.13;1.10;;;5.60;99.90;;;;;;4954393;28;20934;-67
2022/01/30 00:23:15;;;;;;;1.73;1.50;;;5.60;99.90;;;;;;4957754;29;20448;-66
2022/01/30 00:25:50;;;;;;;1.13;1.03;;;5.70;99.90;;;;;;4957514;29;20452;-66
2022/01/30 00:28:18;;;;;;;2.57;1.60;;;5.70;99.90;;;;;;4957699;29;20451;-66
2022/01/30 00:30:44;;;;;;;3.63;1.50;;;5.70;99.90;;;;;;4957671;29;20452;-66
2022/01/30 00:33:09;;;;;;;1.23;1.17;;;5.70;99.90;;;;;;4957558;29;20498;-66
2022/01/30 00:35:36;;;;;;;1.50;1.40;;;5.70;99.90;;;;;;4957530;29;20227;-66
2022/01/30 00:38:02;;;;;;;1.53;1.40;;;5.70;99.90;;;;;;4957559;29;20224;-66
2022/01/30 00:40:28;;;;;;;1.50;1.40;;;5.70;99.90;;;;;;4957525;29;20456;-66
2022/01/30 00:42:54;;;;;;;1.80;1.70;;;5.70;99.90;;;;;;4957394;29;20456;-66
2022/01/30 00:45:19;;;;;;;1.70;1.60;;;5.70;99.90;;;;;;4957133;29;20435;-66
2022/01/30 00:47:46;;;;;;;1.60;1.50;;;5.70;99.90;;;;;;4957302;29;20178;-66
2022/01/30 00:50:11;;;;;;;1.33;1.23;;;5.70;99.90;;;;;;4957424;29;20169;-67
2022/01/30 00:52:37;;;;;;;1.47;1.37;;;5.70;99.90;;;;;;4957281;29;20812;-66
2022/01/30 00:55:03;;;;;;;1.63;1.40;;;5.80;99.90;;;;;;4956945;29;20165;-66
2022/01/30 00:57:29;;;;;;;1.90;1.80;;;5.80;99.90;;;;;;4957213;29;20169;-66
2022/01/30 00:59:54;;;;;;;1.60;1.50;;;5.80;99.90;;;;;;4957149;29;20425;-66
2022/01/30 01:02:20;;;;;;;1.47;1.37;;;5.90;99.90;;;;;;4956945;29;20193;-66
2022/01/30 01:04:46;;;;;;;1.30;1.20;;;5.90;99.90;;;;;;4957042;29;20236;-66
2022/01/30 01:07:19;;;;;;;1.50;1.40;;;5.90;99.90;;;;;;4956861;29;20173;-66
2022/01/30 01:10:07;;;;;;;1.60;1.50;;;5.90;99.90;;;;;;4956911;29;20201;-66
2022/01/30 01:23:38;;;;;;;1.60;1.50;;;6.10;99.90;;;;;;4956723;29;20451;-66
2022/01/30 01:26:05;;;;;;;4.03;2.40;;;6.10;99.90;;;;;;4956485;29;20420;-66
2022/01/30 01:28:30;;;;;;;2.17;1.80;;;6.10;99.90;;;;;;4956556;29;20471;-66
2022/01/30 01:30:57;;;;;;;2.40;2.20;;;6.10;99.90;;;;;;4955667;29;20421;-66
2022/01/30 01:33:27;;;;;;;1.60;1.50;;;6.00;99.90;;;;;;4955379;28;20572;-66
2022/01/30 01:35:52;;;;;;;2.63;1.47;;;6.10;99.90;;;;;;4956275;28;20428;-66
2022/01/30 01:38:19;;;;;;;1.80;1.53;;;6.00;99.90;;;;;;4956455;29;20776;-66
2022/01/30 01:40:52;;;;;;;2.03;1.83;;;6.10;99.90;;;;;;4956451;29;20173;-66
2022/01/30 01:43:19;;;;;;;1.73;1.63;;;6.00;99.90;;;;;;4956363;29;20448;-66
2022/01/30 01:45:48;;;;;;;2.00;1.87;;;6.00;99.90;;;;;;4956020;29;20428;-66
2022/01/30 01:48:14;;;;;;;1.60;1.50;;;6.00;99.90;;;;;;4956206;29;20464;-66
2022/01/30 01:50:51;;;;;;;2.87;1.83;;;6.00;99.90;;;;;;4956309;29;20934;-66
2022/01/30 01:53:19;;;;;;;1.90;1.80;;;6.00;99.90;;;;;;4956123;29;20446;-66
2022/01/30 01:55:45;;;;;;;2.13;2.00;;;5.90;99.90;;;;;;4955922;29;20768;-66
2022/01/30 01:58:12;;;;;;;3.73;1.93;;;5.90;99.90;;;;;;4956138;29;20838;-66
2022/01/30 02:00:37;;;;;;;1.77;1.67;;;5.90;99.90;;;;;;4956046;29;20429;-66
2022/01/30 02:03:04;;;;;;;2.00;1.73;;;6.00;99.90;;;;;;4955903;29;20962;-66
2022/01/30 02:05:33;;;;;;;2.17;1.83;;;6.00;99.90;;;;;;4955742;29;20201;-66
2022/01/30 02:27:24;;;;;;;2.47;2.27;;;6.00;99.90;;;;;;4955464;29;20459;-66
2022/01/30 02:29:50;;;;;;;2.40;2.20;;;6.00;99.90;;;;;;4955462;28;20989;-66
2022/01/30 02:32:16;;;;;;;2.67;2.17;;;6.00;99.90;;;;;;4955467;29;20427;-66
2022/01/30 02:34:42;;;;;;;2.53;2.37;;;6.00;99.90;;;;;;4955467;29;20923;-66
2022/01/30 02:37:08;;;;;;;2.30;2.10;;;5.90;99.90;;;;;;4955126;29;20428;-66
2022/01/30 02:39:34;;;;;;;2.27;2.17;;;6.00;99.90;;;;;;4955389;29;20428;-66
2022/01/30 02:42:00;;;;;;;2.77;2.50;;;6.00;99.90;;;;;;4955348;29;20192;-66
2022/01/30 02:44:33;;;;;;;3.17;2.70;;;6.00;99.90;;;;;;4954807;28;20207;-66
2022/01/30 02:47:20;;;;;;;2.97;2.77;;;5.90;99.90;;;;;;4955056;29;20417;-67
2022/01/30 02:50:08;;;;;;;3.40;2.50;;;5.90;99.90;;;;;;4955136;29;20508;-66
2022/01/30 02:52:32;;;;;;;2.60;2.40;;;5.90;99.90;;;;;;4954944;29;20448;-66
2022/01/30 02:54:58;;;;;;;3.20;2.53;;;5.90;99.90;;;;;;4955012;29;20840;-66
2022/01/30 02:57:23;;;;;;;2.03;1.90;;;5.90;99.90;;;;;;4955082;29;20428;-66
2022/01/30 02:59:50;;;;;;;3.13;2.30;;;5.90;99.90;;;;;;4955044;29;20235;-66
2022/01/30 03:02:16;;;;;;;2.83;2.37;;;5.90;99.90;;;;;;4954794;29;20189;-66
2022/01/30 03:04:41;;;;;;;3.07;2.77;;;5.90;99.90;;;;;;4954955;29;20776;-66
2022/01/30 03:07:07;;;;;;;3.17;2.87;;;5.90;99.90;;;;;;4954588;29;20571;-66
2022/01/30 03:09:33;;;;;;;4.97;2.90;;;5.90;99.90;;;;;;4954738;29;20299;-66
2022/01/30 03:11:58;;;;;;;3.43;2.70;;;5.90;99.90;;;;;;4954766;29;20639;-66
2022/01/30 03:14:24;;;;;;;2.30;2.10;;;6.00;99.90;;;;;;4954676;29;20682;-66
2022/01/30 03:16:49;;;;;;;3.60;2.03;;;6.00;99.90;;;;;;4954541;29;20173;-66
2022/01/30 03:19:15;;;;;;;4.77;2.27;;;6.00;99.90;;;;;;4954665;29;20177;-66
2022/01/30 03:21:40;;;;;;;2.77;1.87;;;6.00;99.90;;;;;;4954657;29;20255;-66
2022/01/30 03:24:06;;;;;;;2.37;2.17;;;6.10;99.90;;;;;;4954443;29;20287;-66
2022/01/30 03:26:37;;;;;;;3.60;1.80;;;6.10;99.90;;;;;;4954290;29;20177;-66
2022/01/30 03:29:06;;;;;;;2.90;1.70;;;6.20;99.90;;;;;;4954505;29;20288;-66
2022/01/30 03:31:33;;;;;;;2.27;1.60;;;6.20;99.90;;;;;;4954495;29;20416;-66
2022/01/30 03:33:59;;;;;;;2.03;1.43;;;6.30;99.90;;;;;;4954407;29;20436;-66
2022/01/30 03:36:24;;;;;;;1.83;1.70;;;6.30;99.90;;;;;;4954048;29;21000;-66
2022/01/30 03:38:50;;;;;;;1.90;1.30;;;6.30;99.90;;;;;;4954379;29;20185;-66
2022/01/30 03:41:15;;;;;;;1.47;1.30;;;6.30;99.90;;;;;;4954361;29;20208;-66
2022/01/30 03:43:41;;;;;;;3.73;1.20;;;6.30;99.90;;;;;;4954211;29;20217;-66
2022/01/30 03:46:07;;;;;;;1.63;1.53;;;6.30;99.90;;;;;;4954011;29;20180;-66
2022/01/30 03:48:32;;;;;;;3.17;1.60;;;6.30;99.90;;;;;;4954173;29;20196;-66
2022/01/30 03:50:58;;;;;;;2.60;1.47;;;6.30;99.90;;;;;;4954123;29;20851;-66
2022/01/30 03:53:23;;;;;;;2.23;1.40;;;6.30;99.90;;;;;;4954005;29;20251;-66
2022/01/30 03:55:49;;;;;;;4.50;1.73;;;6.30;99.90;;;;;;4953462;28;20655;-66
2022/01/30 03:58:15;;;;;;;2.67;1.37;;;6.30;99.90;;;;;;4954100;29;20196;-66
2022/01/30 04:00:40;;;;;;;12.00;1.97;;;6.30;99.90;;;;;;4954046;29;20212;-66
2022/01/30 04:03:06;;;;;;;4.40;2.17;;;6.30;99.90;;;;;;4953848;29;20307;-66
2022/01/30 04:05:32;;;;;;;1.80;1.60;;;6.20;99.90;;;;;;4954110;29;20180;-66
2022/01/30 04:08:04;;;;;;;2.13;1.60;;;6.20;99.90;;;;;;4953893;29;20181;-66
2022/01/30 04:10:31;;;;;;;1.77;1.67;;;6.20;99.90;;;;;;4954069;29;20243;-66
2022/01/30 04:12:56;;;;;;;4.37;2.07;;;6.30;99.90;;;;;;4953865;29;20440;-66
2022/01/30 04:15:22;;;;;;;2.47;2.27;;;6.30;99.90;;;;;;4953663;29;20428;-66
2022/01/30 04:17:48;;;;;;;6.80;2.80;;;6.30;99.90;;;;;;4953845;29;20184;-66
2022/01/30 04:20:14;;;;;;;3.30;1.83;;;6.30;99.90;;;;;;4953797;29;20177;-67
2022/01/30 04:22:40;;;;;;;5.20;2.27;;;6.30;99.90;;;;;;4953763;29;20599;-66
2022/01/30 04:25:05;;;;;;;2.77;2.50;;;6.30;99.90;;;;;;4953583;29;20431;-66
2022/01/30 04:27:31;;;;;;;3.83;3.43;;;6.30;99.90;;;;;;4953826;29;20173;-66
2022/01/30 04:29:57;;;;;;;6.33;3.13;;;6.40;99.90;;;;;;4953726;29;20464;-66
2022/01/30 04:32:25;;;;;;;6.23;3.40;;;6.40;99.90;;;;;;4953828;29;20674;-66
2022/01/30 04:34:56;;;;;;;8.83;4.57;;;6.40;99.90;;;;;;4953656;29;20256;-66
2022/01/30 04:37:48;;;;;;;7.33;3.60;;;6.40;99.90;;;;;;4953590;28;20487;-66
2022/01/30 04:41:09;;;;;;;9.53;5.00;;;6.40;99.90;;;;;;4953669;29;20424;-66
2022/01/30 04:59:39;;;;;;;6.53;4.30;;;6.40;99.90;;;;;;4953692;29;20472;-66
2022/01/30 05:09:36;;;;;;;8.40;5.10;;;6.30;99.90;;;;;;4956875;29;20678;-66
2022/01/30 05:12:01;;;;;;;13.33;4.30;;;6.20;99.90;;;;;;4957044;29;20427;-67
2022/01/30 05:14:33;;;;;;;5.90;3.67;;;6.20;99.90;;;;;;4956796;29;20197;-66
2022/01/30 05:16:59;;;;;;;8.20;4.97;;;6.20;99.90;;;;;;4956635;29;20177;-66
2022/01/30 05:19:26;;;;;;;13.43;4.90;;;6.10;99.90;;;;;;4956864;29;20851;-66
2022/01/30 05:21:51;;;;;;;9.60;4.57;;;6.10;99.90;;;;;;4956880;29;20173;-66
2022/01/30 05:24:17;;;;;;;8.60;4.33;;;6.10;99.90;;;;;;4956623;29;20467;-66
2022/01/30 05:26:44;;;;;;;9.00;4.53;;;6.10;99.90;;;;;;4956420;29;20491;-66
2022/01/30 05:29:10;;;;;;;7.40;3.93;;;6.10;99.90;;;;;;4956422;29;20259;-66
2022/01/30 05:31:36;;;;;;;7.70;4.43;;;6.10;99.90;;;;;;4956544;29;20412;-66
2022/01/30 05:34:02;;;;;;;8.77;4.00;;;6.10;99.90;;;;;;4956401;29;20520;-66
2022/01/30 05:36:29;;;;;;;5.70;4.10;;;6.10;99.90;;;;;;4956291;29;20416;-66
2022/01/30 05:38:55;;;;;;;9.50;4.03;;;6.10;99.90;;;;;;4956330;29;20272;-66
2022/01/30 05:41:21;;;;;;;6.73;4.10;;;6.10;99.90;;;;;;4956387;29;20507;-67
2022/01/30 05:43:51;;;;;;;12.83;5.90;;;6.10;99.90;;;;;;4956262;29;20713;-66
2022/01/30 05:46:29;;;;;;;9.20;4.40;;;6.10;99.90;;;;;;4956091;28;20548;-66
2022/01/30 05:48:55;;;;;;;8.20;4.73;;;6.10;99.90;;;;;;4956173;29;20460;-66
2022/01/30 05:51:20;;;;;;;14.57;4.53;;;6.20;99.90;;;;;;4956293;29;20499;-66
2022/01/30 05:53:46;;;;;;;13.43;4.70;;;6.20;99.90;;;;;;4956137;29;20441;-67
2022/01/30 05:56:12;;;;;;;7.30;4.67;;;6.20;99.90;;;;;;4955787;29;20316;-66
2022/01/30 05:58:40;;;;;;;11.20;5.30;;;6.20;99.90;;;;;;4956128;29;20169;-67
2022/01/30 06:01:06;;;;;;;22.90;4.13;;;6.20;99.90;;;;;;4956051;29;20448;-66
2022/01/30 06:03:32;;;;;;;10.30;4.23;;;6.30;99.90;;;;;;4955710;29;20519;-67
2022/01/30 06:05:57;;;;;;;11.50;4.30;;;6.30;99.90;;;;;;4955653;29;20185;-67
2022/01/30 06:08:57;;;;;;;9.50;4.30;;;6.30;99.90;;;;;;4955817;29;20197;-67
2022/01/30 06:11:22;;;;;;;7.67;3.73;;;6.40;99.90;;;;;;4955867;29;20174;-66
2022/01/30 06:13:48;;;;;;;10.30;4.90;;;6.40;99.90;;;;;;4955717;29;20452;-67
2022/01/30 06:16:13;;;;;;;13.23;4.90;;;6.30;99.90;;;;;;4955603;29;20198;-67
2022/01/30 06:18:39;;;;;;;7.00;3.70;;;6.30;99.90;;;;;;4955040;28;20807;-67
2022/01/30 06:21:04;;;;;;;8.73;4.83;;;6.30;99.90;;;;;;4955604;29;20180;-67
2022/01/30 06:23:30;;;;;;;7.40;2.93;;;6.30;99.90;;;;;;4955555;29;20200;-66
2022/01/30 06:25:56;;;;;;;10.00;3.97;;;6.20;99.90;;;;;;4955453;29;20244;-66
2022/01/30 06:28:21;;;;;;;8.77;3.80;;;6.20;99.90;;;;;;4955600;29;20580;-66
2022/01/30 06:30:47;;;;;;;8.40;3.40;;;6.10;99.90;;;;;;4955592;28;20555;-67
2022/01/30 06:33:13;;;;;;;7.17;3.60;;;6.00;99.90;;;;;;4955322;29;20882;-66
2022/01/30 06:35:39;;;;;;;11.70;5.53;;;6.00;99.90;;;;;;4955072;29;20178;-67
2022/01/30 06:38:04;;;;;;;4.40;3.77;;;6.00;99.90;;;;;;4955379;29;20201;-66
2022/01/30 06:40:30;;;;;;;8.83;3.70;;;6.00;99.90;;;;;;4953967;29;20188;-67
2022/01/30 06:42:56;;;;;;;10.77;6.50;;;5.90;99.90;;;;;;4955197;29;20192;-67
2022/01/30 06:45:21;;;;;;;15.47;4.30;;;5.80;99.90;;;;;;4954951;29;20939;-67
2022/01/30 06:47:47;;;;;;;6.07;3.87;;;5.80;99.90;;;;;;4955085;29;20177;-67
2022/01/30 06:50:14;;;;;;;10.13;4.13;;;5.70;99.90;;;;;;4954903;29;20209;-67
2022/01/30 06:52:39;;;;;;;10.37;3.90;;;5.60;99.90;;;;;;4954827;29;20196;-67
2022/01/30 06:55:06;;;;;;;7.47;4.20;;;5.60;99.90;;;;;;4954722;29;21035;-67
2022/01/30 06:57:32;;;;;;;9.93;3.87;;;5.50;99.90;;;;;;4954898;29;20717;-66
2022/01/30 06:59:57;;;;;;;13.73;4.80;;;5.40;99.90;;;;;;4954838;29;20523;-67
2022/01/30 07:02:23;;;;;;;7.67;3.60;;;5.40;99.90;;;;;;4954584;29;20278;-67
2022/01/30 07:04:48;;;;;;;5.97;3.70;;;5.40;99.90;;;;;;4954782;29;20321;-66
2022/01/30 07:07:14;;;;;;;8.80;4.77;;;5.30;99.90;;;;;;4954552;29;20713;-67
2022/01/30 07:09:40;;;;;;;11.63;3.50;;;5.30;99.90;;;;;;4954598;29;20205;-67
2022/01/30 07:12:06;;;;;;;9.33;3.83;;;5.30;99.90;;;;;;4954644;29;20416;-67
2022/01/30 07:14:32;;;;;;;8.23;3.50;;;5.20;99.90;;;;;;4954591;29;20180;-67
2022/01/30 07:16:57;;;;;;;8.27;3.77;;;5.10;99.90;;;;;;4954369;29;20429;-67
2022/01/30 07:19:23;;;;;;;9.63;5.60;;;5.10;99.90;;;;;;4954486;29;20202;-67
2022/01/30 07:21:49;;;;;;;8.27;3.40;;;5.10;99.90;;;;;;4954596;29;20220;-67
2022/01/30 07:24:14;;;;;;;9.43;3.60;;;5.10;99.90;;;;;;4954566;29;20189;-67
2022/01/30 07:26:40;;;;;;;10.23;3.47;;;5.10;99.90;;;;;;4954110;29;20173;-66
2022/01/30 07:29:05;;;;;;;6.33;4.40;;;5.10;99.90;;;;;;4954295;29;20208;-67
2022/01/30 07:31:32;;;;;;;6.83;4.00;;;5.10;99.90;;;;;;4953539;28;20196;-67
2022/01/30 07:33:58;;;;;;;14.07;4.63;;;5.10;99.90;;;;;;4954156;29;20196;-66
2022/01/30 07:36:24;;;;;;;10.83;4.13;;;5.20;99.90;;;;;;4953900;29;20903;-67
2022/01/30 07:38:50;;;;;;;5.43;4.20;;;5.30;99.90;;;;;;4954263;29;20501;-67
2022/01/30 07:41:15;;;;;;;10.27;4.30;;;5.40;99.90;;;;;;4954179;29;20173;-67
2022/01/30 07:43:41;;;;;;;16.50;4.43;;;5.60;99.90;;;;;;4954115;29;20196;-67
2022/01/30 07:46:07;;;;;;;6.10;3.93;;;5.60;99.90;;;;;;4953786;29;20204;-66
2022/01/30 07:48:33;;;;;;;10.53;4.80;;;5.70;99.90;;;;;;4954009;29;20257;-67
2022/01/30 07:50:58;;;;;;;19.27;12.57;;;5.90;99.90;;;;;;4954066;29;20440;-67
2022/01/30 07:53:24;;;;;;;12.20;4.87;;;6.00;99.90;;;;;;4953909;29;20199;-67
2022/01/30 07:55:49;;;;;;;12.63;4.20;;;6.10;99.90;;;;;;4953763;29;20172;-67
2022/01/30 07:58:15;;;;;;;11.33;5.03;;;6.20;99.90;;;;;;4954062;29;20184;-66
2022/01/30 08:00:41;;;;;;;8.90;4.20;;;6.40;99.90;;;;;;4953876;29;20219;-66
2022/01/30 08:03:06;;;;;;;9.83;4.53;;;6.80;99.90;;;;;;4953769;29;20208;-66
2022/01/30 08:05:32;;;;;;;12.33;4.27;;;7.10;99.90;;;;;;4953641;29;20255;-66
2022/01/30 08:07:58;;;;;;;8.73;4.33;;;7.40;99.90;;;;;;4953752;29;20188;-66
2022/01/30 08:10:23;;;;;;;9.33;3.87;;;7.20;99.90;;;;;;4953909;29;20173;-67
2022/01/30 08:12:49;;;;;;;11.47;5.20;;;7.20;99.90;;;;;;4953866;29;20191;-66
2022/01/30 08:15:14;;;;;;;15.20;4.67;;;7.20;99.90;;;;;;4953480;29;20181;-66
2022/01/30 08:17:40;;;;;;;11.67;4.53;;;7.30;99.90;;;;;;4953688;29;20172;-67
2022/01/30 08:20:07;;;;;;;7.37;3.13;;;7.50;99.90;;;;;;4953734;29;20173;-66
2022/01/30 08:22:52;;;;;;;14.97;4.10;;;7.50;99.90;;;;;;4953793;29;20240;-66
2022/01/30 08:25:19;;;;;;;6.83;3.30;;;7.70;99.90;;;;;;4953512;29;20420;-66
2022/01/30 08:27:45;;;;;;;12.00;3.77;;;8.00;99.90;;;;;;4953656;29;20427;-66
2022/01/30 08:30:11;;;;;;;5.70;3.30;;;8.70;99.90;;;;;;4953523;29;20460;-66
2022/01/30 08:32:38;;;;;;;9.03;3.43;;;9.00;99.90;;;;;;4953562;29;20683;-66
2022/01/30 08:35:04;;;;;;;9.40;4.20;;;8.50;99.90;;;;;;4953442;29;20273;-67
2022/01/30 08:37:30;;;;;;;6.87;3.93;;;8.10;99.90;;;;;;4953690;29;20784;-66
2022/01/30 08:39:55;;;;;;;15.23;3.93;;;7.60;99.90;;;;;;4953562;29;20421;-66
2022/01/30 08:42:21;;;;;;;9.37;3.87;;;7.50;99.90;;;;;;4955390;28;20189;-67
2022/01/30 08:44:47;;;;;;;7.93;3.30;;;7.40;99.90;;;;;;4957191;29;20199;-66
2022/01/30 08:47:12;;;;;;;6.00;3.50;;;7.30;99.90;;;;;;4957145;29;20223;-66
2022/01/30 08:49:38;;;;;;;14.20;4.20;;;7.10;99.90;;;;;;4957158;29;20210;-66
2022/01/30 08:52:04;;;;;;;9.07;3.53;;;7.10;99.90;;;;;;4957363;29;20173;-66
2022/01/30 08:54:29;;;;;;;5.93;3.00;;;7.00;99.90;;;;;;4957188;28;20188;-66
2022/01/30 08:56:55;;;;;;;8.93;3.80;;;7.00;99.90;;;;;;4956853;29;20794;-66
2022/01/30 08:59:20;;;;;;;8.70;3.53;;;6.90;99.90;;;;;;4956894;29;20643;-67
2022/01/30 09:01:46;;;;;;;8.10;3.53;;;6.80;99.90;;;;;;4956827;29;20228;-67
2022/01/30 09:04:14;;;;;;;7.07;3.40;;;6.80;99.90;;;;;;4956896;29;20189;-66
2022/01/30 09:06:39;;;;;;;7.33;3.87;;;7.00;99.90;;;;;;4956758;29;20518;-67
2022/01/30 09:09:05;;;;;;;10.60;3.40;;;8.20;99.90;;;;;;4956864;29;20462;-66
2022/01/30 09:11:33;;;;;;;13.50;4.33;;;10.10;99.90;;;;;;4956834;29;20165;-66
2022/01/30 09:13:58;;;;;;;9.57;4.23;;;11.20;99.90;;;;;;4956653;29;20197;-66
2022/01/30 09:16:24;;;;;;;9.03;3.43;;;11.00;99.90;;;;;;4956491;29;20491;-66
2022/01/30 09:18:50;;;;;;;6.97;3.13;;;10.40;99.90;;;;;;4956711;29;20173;-66
2022/01/30 09:21:15;;;;;;;8.80;3.37;;;10.10;99.90;;;;;;4956635;29;20640;-66
2022/01/30 09:23:41;;;;;;;8.93;5.00;;;10.10;99.90;;;;;;4956544;29;20219;-66
2022/01/30 09:26:06;;;;;;;9.47;4.13;;;10.10;99.90;;;;;;4956291;29;20181;-66
2022/01/30 09:28:32;;;;;;;8.87;3.50;;;10.80;99.90;;;;;;4956373;29;20208;-66
2022/01/30 09:30:57;;;;;;;5.33;3.63;;;12.60;99.90;;;;;;4956502;29;20173;-67
2022/01/30 09:33:23;;;;;;;5.00;3.00;;;14.10;99.90;;;;;;4956438;29;20707;-67
2022/01/30 09:35:48;;;;;;;6.27;3.80;;;15.20;99.90;;;;;;4956341;29;20659;-67
2022/01/30 09:38:14;;;;;;;5.70;3.70;;;15.40;97.20;;;;;;4956483;29;20659;-67
2022/01/30 09:40:39;;;;;;;6.27;3.20;;;16.40;95.50;;;;;;4956433;29;20177;-67
2022/01/30 09:43:06;;;;;;;9.57;3.23;;;16.90;92.20;;;;;;4956161;29;20248;-67
2022/01/30 09:45:33;;;;;;;8.73;4.07;;;17.60;91.70;;;;;;4956097;29;20180;-67
2022/01/30 09:47:59;;;;;;;7.40;3.90;;;17.90;84.20;;;;;;4956282;29;20434;-67
2022/01/30 09:50:25;;;;;;;9.50;4.17;;;16.90;85.50;;;;;;4956354;29;20412;-67
2022/01/30 09:52:51;;;;;;;7.50;3.43;;;15.90;85.10;;;;;;4955762;28;20942;-66
2022/01/30 09:55:16;;;;;;;5.93;3.03;;;15.50;86.90;;;;;;4955601;29;20180;-66
2022/01/30 09:57:43;;;;;;;9.13;4.17;;;15.10;87.10;;;;;;4956097;29;20565;-66
2022/01/30 10:00:11;;;;;;;9.27;3.83;;;14.60;87.60;;;;;;4956135;29;20549;-66
2022/01/30 10:02:40;;;;;;;7.37;3.40;;;14.10;88.60;;;;;;4955896;29;20492;-66
2022/01/30 10:05:06;;;;;;;11.83;3.90;;;14.60;90.40;;;;;;4956158;29;20452;-67
2022/01/30 10:07:48;;;;;;;9.67;4.20;;;15.30;86.30;;;;;;4955856;29;20432;-66
2022/01/30 10:10:17;;;;;;;10.10;3.93;;;15.40;84.70;;;;;;4955720;29;20837;-65
2022/01/30 10:13:05;;;;;;;8.00;3.20;;;16.10;82.00;;;;;;4955698;29;20448;-66
2022/01/30 10:15:57;;;;;;;6.37;3.67;;;15.10;84.00;;;;;;4955518;29;20420;-66
2022/01/30 10:18:26;;;;;;;8.53;3.20;;;14.40;84.40;;;;;;4955695;29;20767;-66
2022/01/30 10:20:52;;;;;;;10.47;3.73;;;16.40;81.90;;;;;;4955631;29;20424;-66
2022/01/30 10:23:17;;;;;;;5.93;2.90;;;17.90;77.50;;;;;;4955737;29;20981;-67
2022/01/30 10:25:53;;;;;;;4.73;3.10;;;15.70;78.20;;;;;;4955349;29;20233;-66
2022/01/30 10:28:31;;;;;;;14.40;4.40;;;13.70;83.00;;;;;;4955503;29;20564;-66
2022/01/30 10:31:00;;;;;;;6.37;3.60;;;11.80;89.00;;;;;;4955530;29;20501;-66
2022/01/30 10:33:38;;;;;;;11.00;3.97;;;11.30;91.30;;;;;;4955348;29;20503;-66
2022/01/30 10:36:04;;;;;;;8.47;3.60;;;11.50;92.60;;;;;;4955278;29;20977;-66
2022/01/30 10:38:35;;;;;;;10.63;3.20;;;12.20;92.10;;;;;;4955390;29;20463;-67
2022/01/30 10:41:13;;;;;;;11.30;4.20;;;12.40;91.20;;;;;;4955351;29;20929;-67
2022/01/30 10:43:58;;;;;;;11.43;4.17;;;11.50;92.60;;;;;;4955014;29;20942;-66
2022/01/30 10:46:26;;;;;;;8.00;3.60;;;10.80;94.10;;;;;;4954874;29;20421;-66
2022/01/30 10:48:54;;;;;;;10.00;3.30;;;10.70;95.10;;;;;;4955029;29;20463;-66
2022/01/30 10:51:20;;;;;;;8.63;3.43;;;10.50;95.90;;;;;;4955012;28;20417;-66
2022/01/30 10:53:49;;;;;;;6.67;2.93;;;10.30;96.00;;;;;;4954790;29;20432;-66
2022/01/30 10:56:27;;;;;;;14.30;3.40;;;10.80;96.00;;;;;;4954804;29;20420;-67
2022/01/30 10:59:13;;;;;;;5.87;2.80;;;11.70;94.60;;;;;;4955013;29;20905;-66
2022/01/30 11:01:40;;;;;;;7.30;3.50;;;11.80;94.90;;;;;;4954741;29;20454;-66
2022/01/30 11:04:06;;;;;;;6.87;3.57;;;11.70;94.60;;;;;;4954815;28;20444;-65
2022/01/30 11:06:39;;;;;;;10.87;3.07;;;12.30;94.90;;;;;;4954429;29;20416;-67
2022/01/30 11:09:12;;;;;;;6.27;3.40;;;14.70;91.20;;;;;;4954690;28;20826;-66
2022/01/30 11:11:43;;;;;;;5.53;3.70;;;17.60;83.20;;;;;;4954838;29;20491;-67
2022/01/30 11:19:21;;;;;;;7.53;2.97;;;20.90;58.40;;;;;;4954866;29;20435;-66
2022/01/30 11:21:49;;;;;;;10.20;5.00;;;18.00;60.20;;;;;;4954591;29;20487;-66
2022/01/30 11:24:16;;;;;;;9.67;3.90;;;15.50;66.40;;;;;;4954424;29;20994;-67
2022/01/30 11:26:46;;;;;;;10.57;4.50;;;14.50;71.40;;;;;;4954160;29;20420;-67
2022/01/30 11:29:15;;;;;;;9.47;3.47;;;14.50;71.70;;;;;;4954324;29;20468;-66
2022/01/30 11:31:41;;;;;;;12.87;4.80;;;13.20;73.80;;;;;;4954254;29;20412;-66
2022/01/30 11:34:07;;;;;;;10.83;3.27;;;12.30;78.10;;;;;;4954206;29;20531;-66
2022/01/30 11:36:36;;;;;;;6.50;3.90;;;12.50;80.50;;;;;;4953866;29;20417;-66
2022/01/30 11:39:04;;;;;;;8.60;3.13;;;13.30;78.20;;;;;;4954057;29;20425;-66
2022/01/30 11:41:31;;;;;;;10.93;3.10;;;12.60;79.00;;;;;;4953781;29;20416;-66
2022/01/30 11:44:18;;;;;;;9.60;2.83;;;13.90;79.60;;;;;;4953997;29;20448;-67
2022/01/30 11:46:44;;;;;;;9.50;3.90;;;16.40;71.80;;;;;;4953830;29;20457;-67
2022/01/30 11:49:14;;;;;;;7.67;3.53;;;17.60;67.40;;;;;;4953983;29;20981;-65
2022/01/30 11:51:53;;;;;;;6.97;2.87;;;17.90;63.90;;;;;;4954043;29;20522;-67
2022/01/30 11:54:35;;;;;;;5.03;2.77;;;18.20;62.70;;;;;;4954059;29;20455;-67
2022/01/30 11:57:02;;;;;;;9.10;4.37;;;17.30;64.10;;;;;;4953782;29;20423;-67
2022/01/30 11:59:40;;;;;;;7.87;3.60;;;18.40;61.50;;;;;;4954017;29;20451;-66
2022/01/30 12:02:23;;;;;;;9.07;3.60;;;19.70;59.20;;;;;;4953947;29;20440;-67
2022/01/30 12:04:58;;;;;;;9.57;4.30;;;20.40;57.00;;;;;;4952719;29;20803;-67
2022/01/30 12:07:34;;;;;;;7.40;3.50;;;20.20;56.50;;;;;;4953892;29;20412;-67
2022/01/30 12:10:22;;;;;;;7.10;3.30;;;21.30;55.60;;;;;;4953989;29;20900;-66
2022/01/30 12:12:55;;;;;;;7.20;3.97;;;21.10;53.60;;;;;;4953898;29;20455;-67
2022/01/30 12:15:47;;;;;;;5.60;3.70;;;21.10;52.90;;;;;;4953653;29;20413;-67
2022/01/30 12:18:37;;;;;;;10.03;3.70;;;20.30;53.10;;;;;;4959967;28;20456;-66
2022/01/30 12:21:13;;;;;;;6.63;3.83;;;19.80;54.30;;;;;;4960113;29;20563;-66
2022/01/30 12:23:40;;;;;;;7.30;3.83;;;19.70;55.40;;;;;;4960176;28;20446;-66
2022/01/30 12:26:10;;;;;;;7.53;3.67;;;20.60;53.40;;;;;;4959899;28;20475;-67
2022/01/30 12:28:42;;;;;;;8.23;3.60;;;20.00;53.00;;;;;;4960059;28;21008;-66
2022/01/30 12:31:29;;;;;;;8.70;3.70;;;19.00;53.70;;;;;;4960165;29;20417;-66
2022/01/30 12:34:07;;;;;;;7.10;4.10;;;16.80;56.70;;;;;;4960102;28;20462;-66
2022/01/30 12:36:36;;;;;;;12.13;4.50;;;15.90;58.90;;;;;;4959773;29;20452;-67
2022/01/30 12:39:15;;;;;;;6.53;3.83;;;14.10;62.60;;;;;;4959960;28;20953;-67
2022/01/30 12:41:41;;;;;;;6.50;3.80;;;13.80;68.00;;;;;;4959798;29;20428;-67
2022/01/30 12:44:11;;;;;;;10.33;3.90;;;15.80;62.60;;;;;;4959931;28;20444;-66
2022/01/30 12:46:46;;;;;;;8.13;3.60;;;16.30;61.30;;;;;;4959774;28;20416;-67
2022/01/30 12:49:19;;;;;;;9.70;3.47;;;14.80;63.00;;;;;;4959960;29;20467;-67
2022/01/30 12:51:52;;;;;;;6.93;3.67;;;14.00;65.90;;;;;;4959910;29;20463;-67
2022/01/30 12:54:36;;;;;;;8.90;4.00;;;13.80;68.00;;;;;;4959754;29;20596;-67
2022/01/30 12:57:01;;;;;;;10.40;3.80;;;13.20;69.80;;;;;;4959608;28;20420;-66
2022/01/30 12:59:27;;;;;;;7.43;4.20;;;13.50;71.00;;;;;;4959896;28;21032;-67
2022/01/30 13:02:01;;;;;;;9.37;3.90;;;15.30;67.60;;;;;;4959804;29;20212;-67
2022/01/30 13:04:26;;;;;;;8.57;3.30;;;17.20;61.40;;;;;;4959691;28;20189;-67
2022/01/30 13:06:53;;;;;;;10.93;4.60;;;18.60;59.40;;;;;;4959470;28;20431;-67
2022/01/30 13:09:27;;;;;;;9.97;4.07;;;21.20;56.00;;;;;;4959763;28;20201;-66
2022/01/30 13:11:54;;;;;;;11.90;5.23;;;23.00;52.20;;;;;;4959844;28;20420;-67
2022/01/30 13:14:20;;;;;;;8.20;4.70;;;22.40;51.10;;;;;;4959746;28;20954;-67
2022/01/30 13:16:50;;;;;;;10.23;3.43;;;21.80;50.70;;;;;;4959609;29;20467;-67
2022/01/30 13:19:32;;;;;;;7.53;3.83;;;22.40;49.20;;;;;;4958504;28;21029;-67
2022/01/30 13:21:58;;;;;;;6.63;4.00;;;21.70;49.30;;;;;;4959715;29;20420;-67
2022/01/30 13:24:25;;;;;;;9.40;3.70;;;22.30;48.40;;;;;;4959696;28;20440;-67
2022/01/30 13:27:02;;;;;;;7.10;3.20;;;21.30;49.40;;;;;;4959366;28;20503;-67
2022/01/30 13:29:31;;;;;;;6.63;3.63;;;18.90;51.70;;;;;;4956784;28;20451;-67
2022/01/30 13:31:57;;;;;;;10.60;3.30;;;16.00;55.00;;;;;;4956627;29;20448;-66
2022/01/30 13:34:28;;;;;;;7.50;3.80;;;14.70;58.10;;;;;;4956467;29;21032;-67
2022/01/30 13:37:06;;;;;;;8.20;3.27;;;15.70;58.00;;;;;;4956214;29;20503;-67
2022/01/30 13:39:44;;;;;;;11.70;3.47;;;15.80;57.60;;;;;;4956447;29;20774;-66
2022/01/30 13:47:58;;;;;;;11.27;3.60;;;15.10;59.70;;;;;;4949813;29;21149;-67
2022/01/30 13:50:43;;;;;;;11.87;3.63;;;14.60;58.80;;;;;;4956117;29;20451;-66
2022/01/30 13:53:21;;;;;;;8.37;2.80;;;14.10;60.10;;;;;;4956118;29;20432;-66
2022/01/30 13:55:58;;;;;;;4.10;2.60;;;14.00;59.90;;;;;;4955760;29;20487;-67
2022/01/30 13:58:47;;;;;;;8.87;3.50;;;14.20;60.80;;;;;;4956192;29;20423;-66
2022/01/30 14:01:17;;;;;;;7.80;2.97;;;16.50;57.30;;;;;;4956110;29;20421;-67
2022/01/30 14:03:44;;;;;;;6.57;2.97;;;16.60;55.20;;;;;;4955938;29;20811;-67